createdAt,value
2018-06-18T00:00:41.424Z,0
2018-06-18T00:01:42.008Z,0
2018-06-18T00:02:42.569Z,0
2018-06-18T00:03:43.158Z,0
2018-06-18T00:04:43.740Z,0
2018-06-18T00:05:44.300Z,0
2018-06-18T00:06:44.865Z,0
2018-06-18T00:07:45.450Z,0
2018-06-18T00:08:46.009Z,0
2018-06-18T00:09:46.571Z,0
2018-06-18T00:10:47.133Z,0
2018-06-18T00:11:47.695Z,0
2018-06-18T00:12:48.258Z,0
2018-06-18T00:13:48.820Z,0
2018-06-18T00:14:49.382Z,0
2018-06-18T00:15:49.944Z,0
2018-06-18T00:16:50.515Z,0
2018-06-18T00:17:51.090Z,0
2018-06-18T00:18:51.659Z,0
2018-06-18T00:19:52.221Z,0
2018-06-18T00:20:52.771Z,0
2018-06-18T00:21:53.328Z,0
2018-06-18T00:22:53.872Z,0
2018-06-18T00:23:54.421Z,0
2018-06-18T00:24:54.975Z,0
2018-06-18T00:25:55.529Z,0
2018-06-18T00:26:56.076Z,0
2018-06-18T00:27:56.629Z,0
2018-06-18T00:28:57.171Z,0
2018-06-18T00:29:57.716Z,0
2018-06-18T00:30:58.269Z,0
2018-06-18T00:31:58.820Z,0
2018-06-18T00:32:59.373Z,0
2018-06-18T00:33:59.929Z,0
2018-06-18T00:35:00.477Z,0
2018-06-18T00:36:01.028Z,0
2018-06-18T00:37:01.579Z,0
2018-06-18T00:38:02.128Z,0
2018-06-18T00:39:02.686Z,0
2018-06-18T00:40:03.231Z,0
2018-06-18T00:41:03.782Z,0
2018-06-18T00:42:04.333Z,0
2018-06-18T00:43:04.881Z,0
2018-06-18T00:44:05.425Z,0
2018-06-18T00:45:05.980Z,0
2018-06-18T00:46:06.531Z,0
2018-06-18T00:47:07.080Z,0
2018-06-18T00:48:07.626Z,0
2018-06-18T00:49:08.178Z,0
2018-06-18T00:50:08.728Z,0
2018-06-18T00:51:09.273Z,0
2018-06-18T00:52:09.823Z,0
2018-06-18T00:53:10.377Z,0
2018-06-18T00:54:10.927Z,0
2018-06-18T00:55:11.472Z,0
2018-06-18T00:56:12.027Z,0
2018-06-18T00:57:12.575Z,0
2018-06-18T00:58:13.124Z,0
2018-06-18T00:59:13.678Z,0
2018-06-18T01:00:14.233Z,0
2018-06-18T01:01:14.772Z,0
2018-06-18T01:02:15.328Z,0
2018-06-18T01:03:15.878Z,0
2018-06-18T01:04:16.429Z,0
2018-06-18T01:05:16.979Z,0
2018-06-18T01:06:17.534Z,0
2018-06-18T01:07:18.080Z,0
2018-06-18T01:08:18.629Z,0
2018-06-18T01:09:19.180Z,0
2018-06-18T01:10:19.734Z,0
2018-06-18T01:11:20.290Z,0
2018-06-18T01:12:20.840Z,0
2018-06-18T01:13:21.387Z,0
2018-06-18T01:14:21.936Z,0
2018-06-18T01:15:22.479Z,0
2018-06-18T01:16:23.029Z,0
2018-06-18T01:17:23.580Z,0
2018-06-18T01:18:24.133Z,0
2018-06-18T01:19:24.690Z,0
2018-06-18T01:20:25.234Z,0
2018-06-18T01:21:25.788Z,0
2018-06-18T01:22:26.340Z,0
2018-06-18T01:23:26.891Z,0
2018-06-18T01:24:27.438Z,0
2018-06-18T01:25:27.991Z,0
2018-06-18T01:26:28.537Z,0
2018-06-18T01:27:29.091Z,0
2018-06-18T01:28:29.639Z,0
2018-06-18T01:29:30.183Z,0
2018-06-18T01:30:30.736Z,0
2018-06-18T01:31:31.282Z,0
2018-06-18T01:32:31.836Z,0
2018-06-18T01:33:32.384Z,0
2018-06-18T01:34:32.930Z,0
2018-06-18T01:35:33.483Z,0
2018-06-18T01:36:34.040Z,0
2018-06-18T01:37:34.588Z,0
2018-06-18T01:38:35.128Z,0
2018-06-18T01:39:35.687Z,0
2018-06-18T01:40:36.236Z,0
2018-06-18T01:41:36.781Z,0
2018-06-18T01:42:37.328Z,0
2018-06-18T01:43:37.878Z,0
2018-06-18T01:44:38.427Z,0
2018-06-18T01:45:38.977Z,0
2018-06-18T01:46:39.529Z,0
2018-06-18T01:47:40.076Z,0
2018-06-18T01:48:40.625Z,0
2018-06-18T01:49:41.179Z,0
2018-06-18T01:50:41.734Z,0
2018-06-18T01:51:42.283Z,0
2018-06-18T01:52:42.833Z,0
2018-06-18T01:53:43.393Z,0
2018-06-18T01:54:43.930Z,0
2018-06-18T01:55:44.481Z,0
2018-06-18T01:56:45.035Z,0
2018-06-18T01:57:45.586Z,0
2018-06-18T01:58:46.133Z,0
2018-06-18T01:59:46.680Z,0
2018-06-18T02:00:47.231Z,0
2018-06-18T02:01:47.782Z,0
2018-06-18T02:02:48.334Z,0
2018-06-18T02:03:48.887Z,0
2018-06-18T02:04:49.437Z,0
2018-06-18T02:05:49.991Z,0
2018-06-18T02:06:50.540Z,0
2018-06-18T02:07:51.093Z,0
2018-06-18T02:08:51.646Z,0
2018-06-18T02:09:52.197Z,0
2018-06-18T02:10:52.745Z,0
2018-06-18T02:11:53.294Z,0
2018-06-18T02:12:53.845Z,0
2018-06-18T02:13:54.444Z,0
2018-06-18T02:14:54.954Z,0
2018-06-18T02:15:55.502Z,0
2018-06-18T02:16:56.054Z,0
2018-06-18T02:17:56.607Z,0
2018-06-18T02:18:57.149Z,0
2018-06-18T02:19:57.704Z,0
2018-06-18T02:20:58.257Z,0
2018-06-18T02:21:58.802Z,0
2018-06-18T02:22:59.356Z,0
2018-06-18T02:23:59.909Z,0
2018-06-18T02:25:00.458Z,0
2018-06-18T02:26:01.002Z,0
2018-06-18T02:27:01.553Z,0
2018-06-18T02:28:02.109Z,0
2018-06-18T02:29:02.652Z,0
2018-06-18T02:30:03.199Z,0
2018-06-18T02:31:03.745Z,0
2018-06-18T02:32:04.300Z,0
2018-06-18T02:33:04.868Z,0
2018-06-18T02:34:05.405Z,0
2018-06-18T02:35:05.952Z,0
2018-06-18T02:36:06.503Z,0
2018-06-18T02:37:07.102Z,0
2018-06-18T02:38:07.599Z,0
2018-06-18T02:39:08.159Z,0
2018-06-18T02:40:08.705Z,0
2018-06-18T02:41:09.257Z,0
2018-06-18T02:42:09.802Z,0
2018-06-18T02:43:10.357Z,0
2018-06-18T02:44:10.907Z,0
2018-06-18T02:45:11.451Z,0
2018-06-18T02:46:12.001Z,0
2018-06-18T02:47:12.546Z,0
2018-06-18T02:48:13.097Z,0
2018-06-18T02:49:13.654Z,0
2018-06-18T02:50:14.199Z,0
2018-06-18T02:51:14.750Z,0
2018-06-18T02:52:15.302Z,0
2018-06-18T02:53:15.855Z,0
2018-06-18T02:54:16.405Z,0
2018-06-18T02:55:16.958Z,0
2018-06-18T02:56:17.512Z,0
2018-06-18T02:57:18.060Z,0
2018-06-18T02:58:18.612Z,0
2018-06-18T02:59:19.162Z,0
2018-06-18T03:00:19.709Z,0
2018-06-18T03:01:20.265Z,0
2018-06-18T03:02:20.816Z,0
2018-06-18T03:03:21.368Z,0
2018-06-18T03:04:21.918Z,0
2018-06-18T03:05:22.476Z,0
2018-06-18T03:06:23.016Z,0
2018-06-18T03:07:23.570Z,0
2018-06-18T03:08:24.120Z,0
2018-06-18T03:09:24.673Z,5
2018-06-18T03:10:25.223Z,5
2018-06-18T03:11:25.776Z,5
2018-06-18T03:12:26.328Z,5
2018-06-18T03:13:26.882Z,5
2018-06-18T03:14:27.434Z,5
2018-06-18T03:15:27.990Z,10
2018-06-18T03:16:28.539Z,10
2018-06-18T03:17:29.095Z,10
2018-06-18T03:18:29.648Z,15
2018-06-18T03:19:30.203Z,15
2018-06-18T03:20:30.754Z,15
2018-06-18T03:21:31.307Z,15
2018-06-18T03:22:31.859Z,15
2018-06-18T03:23:32.410Z,15
2018-06-18T03:24:32.963Z,15
2018-06-18T03:25:33.515Z,15
2018-06-18T03:26:34.070Z,15
2018-06-18T03:27:34.627Z,15
2018-06-18T03:28:35.187Z,15
2018-06-18T03:29:35.737Z,20
2018-06-18T03:30:36.295Z,20
2018-06-18T03:31:36.849Z,20
2018-06-18T03:32:37.396Z,20
2018-06-18T03:33:37.955Z,25
2018-06-18T03:34:38.506Z,25
2018-06-18T03:35:39.050Z,25
2018-06-18T03:36:39.604Z,30
2018-06-18T03:37:40.161Z,30
2018-06-18T03:38:40.712Z,30
2018-06-18T03:39:41.272Z,35
2018-06-18T03:40:41.831Z,35
2018-06-18T03:41:42.388Z,35
2018-06-18T03:42:42.948Z,35
2018-06-18T03:43:43.501Z,35
2018-06-18T03:44:44.055Z,40
2018-06-18T03:45:44.609Z,45
2018-06-18T03:46:45.165Z,45
2018-06-18T03:47:45.722Z,45
2018-06-18T03:48:46.276Z,45
2018-06-18T03:49:46.831Z,45
2018-06-18T03:50:47.384Z,40
2018-06-18T03:51:47.936Z,45
2018-06-18T03:52:48.485Z,45
2018-06-18T03:53:49.042Z,45
2018-06-18T03:54:49.593Z,45
2018-06-18T03:55:50.149Z,45
2018-06-18T03:56:50.705Z,40
2018-06-18T03:57:51.255Z,40
2018-06-18T03:58:51.806Z,40
2018-06-18T03:59:52.361Z,45
2018-06-18T04:00:52.915Z,50
2018-06-18T04:01:53.471Z,55
2018-06-18T04:02:54.030Z,55
2018-06-18T04:03:54.588Z,55
2018-06-18T04:04:55.236Z,55
2018-06-18T04:05:55.786Z,60
2018-06-18T04:06:56.340Z,65
2018-06-18T04:07:56.894Z,65
2018-06-18T04:08:57.441Z,65
2018-06-18T04:09:57.994Z,70
2018-06-18T04:10:58.552Z,70
2018-06-18T04:11:59.126Z,75
2018-06-18T04:12:59.663Z,80
2018-06-18T04:14:00.213Z,80
2018-06-18T04:15:00.768Z,85
2018-06-18T04:16:01.321Z,85
2018-06-18T04:17:01.877Z,90
2018-06-18T04:18:02.428Z,95
2018-06-18T04:19:02.976Z,95
2018-06-18T04:20:03.537Z,100
2018-06-18T04:21:04.091Z,100
2018-06-18T04:22:04.647Z,105
2018-06-18T04:23:05.206Z,100
2018-06-18T04:24:05.765Z,100
2018-06-18T04:25:06.317Z,105
2018-06-18T04:26:06.879Z,105
2018-06-18T04:27:07.433Z,100
2018-06-18T04:28:07.988Z,100
2018-06-18T04:29:08.545Z,100
2018-06-18T04:30:09.097Z,100
2018-06-18T04:31:09.655Z,110
2018-06-18T04:32:10.212Z,110
2018-06-18T04:33:10.760Z,115
2018-06-18T04:34:11.317Z,115
2018-06-18T04:35:11.868Z,115
2018-06-18T04:36:12.425Z,120
2018-06-18T04:37:12.984Z,130
2018-06-18T04:38:13.529Z,140
2018-06-18T04:39:14.087Z,145
2018-06-18T04:40:14.649Z,140
2018-06-18T04:41:15.200Z,130
2018-06-18T04:42:15.759Z,130
2018-06-18T04:43:16.317Z,130
2018-06-18T04:44:16.876Z,145
2018-06-18T04:45:17.434Z,165
2018-06-18T04:46:17.988Z,180
2018-06-18T04:47:18.546Z,185
2018-06-18T04:48:19.101Z,185
2018-06-18T04:49:19.660Z,180
2018-06-18T04:50:20.217Z,175
2018-06-18T04:51:20.775Z,175
2018-06-18T04:52:21.334Z,185
2018-06-18T04:53:21.895Z,195
2018-06-18T04:54:22.453Z,200
2018-06-18T04:55:23.008Z,205
2018-06-18T04:56:23.610Z,220
2018-06-18T04:57:24.126Z,235
2018-06-18T04:58:24.682Z,245
2018-06-18T04:59:25.248Z,245
2018-06-18T05:00:25.806Z,255
2018-06-18T05:01:26.367Z,265
2018-06-18T05:02:26.919Z,280
2018-06-18T05:03:27.482Z,285
2018-06-18T05:04:28.038Z,290
2018-06-18T05:05:28.602Z,280
2018-06-18T05:06:29.175Z,270
2018-06-18T05:07:29.773Z,265
2018-06-18T05:08:30.279Z,260
2018-06-18T05:09:30.841Z,245
2018-06-18T05:10:31.393Z,230
2018-06-18T05:11:31.946Z,205
2018-06-18T05:12:32.510Z,175
2018-06-18T05:13:33.065Z,150
2018-06-18T05:14:33.611Z,170
2018-06-18T05:15:34.173Z,210
2018-06-18T05:16:34.730Z,240
2018-06-18T05:17:35.289Z,265
2018-06-18T05:18:35.839Z,275
2018-06-18T05:19:36.435Z,290
2018-06-18T05:20:36.973Z,290
2018-06-18T05:21:37.500Z,295
2018-06-18T05:22:38.063Z,290
2018-06-18T05:23:38.617Z,295
2018-06-18T05:24:39.163Z,300
2018-06-18T05:25:39.725Z,315
2018-06-18T05:26:40.291Z,340
2018-06-18T05:27:40.847Z,365
2018-06-18T05:28:41.412Z,385
2018-06-18T05:29:41.971Z,405
2018-06-18T05:30:42.535Z,430
2018-06-18T05:31:43.090Z,420
2018-06-18T05:32:43.654Z,390
2018-06-18T05:33:44.219Z,335
2018-06-18T05:34:44.776Z,280
2018-06-18T05:35:45.337Z,255
2018-06-18T05:36:45.900Z,270
2018-06-18T05:37:46.463Z,280
2018-06-18T05:38:47.021Z,295
2018-06-18T05:39:47.582Z,320
2018-06-18T05:40:48.143Z,345
2018-06-18T05:41:48.705Z,375
2018-06-18T05:42:49.264Z,385
2018-06-18T05:43:49.829Z,390
2018-06-18T05:44:50.390Z,380
2018-06-18T05:45:50.954Z,365
2018-06-18T05:46:51.514Z,390
2018-06-18T05:47:52.078Z,380
2018-06-18T05:48:52.640Z,360
2018-06-18T05:49:53.202Z,325
2018-06-18T05:50:53.760Z,320
2018-06-18T05:51:54.323Z,310
2018-06-18T05:52:55.086Z,300
2018-06-18T05:53:55.647Z,285
2018-06-18T05:54:56.203Z,305
2018-06-18T05:55:56.766Z,345
2018-06-18T05:56:57.329Z,320
2018-06-18T05:57:57.895Z,235
2018-06-18T05:58:58.463Z,225
2018-06-18T05:59:59.019Z,215
2018-06-18T06:00:59.582Z,190
2018-06-18T06:02:00.139Z,255
2018-06-18T06:03:00.704Z,345
2018-06-18T06:04:01.262Z,350
2018-06-18T06:05:01.817Z,360
2018-06-18T06:06:02.396Z,380
2018-06-18T06:07:02.941Z,450
2018-06-18T06:08:03.500Z,565
2018-06-18T06:09:04.056Z,595
2018-06-18T06:10:04.619Z,545
2018-06-18T06:11:05.180Z,495
2018-06-18T06:12:05.740Z,440
2018-06-18T06:13:06.300Z,415
2018-06-18T06:14:06.864Z,420
2018-06-18T06:15:07.425Z,480
2018-06-18T06:16:07.995Z,560
2018-06-18T06:17:08.545Z,550
2018-06-18T06:18:09.110Z,490
2018-06-18T06:19:09.664Z,465
2018-06-18T06:20:10.227Z,485
2018-06-18T06:21:10.814Z,505
2018-06-18T06:22:11.364Z,500
2018-06-18T06:23:11.922Z,505
2018-06-18T06:24:12.558Z,460
2018-06-18T06:25:13.116Z,440
2018-06-18T06:26:13.686Z,445
2018-06-18T06:27:14.279Z,425
2018-06-18T06:28:14.833Z,435
2018-06-18T06:29:15.393Z,460
2018-06-18T06:30:15.956Z,435
2018-06-18T06:31:16.516Z,385
2018-06-18T06:32:17.075Z,335
2018-06-18T06:33:17.770Z,330
2018-06-18T06:34:18.327Z,325
2018-06-18T06:35:18.900Z,340
2018-06-18T06:36:19.464Z,335
2018-06-18T06:37:20.026Z,340
2018-06-18T06:38:20.595Z,370
2018-06-18T06:39:21.148Z,390
2018-06-18T06:40:21.708Z,385
2018-06-18T06:41:22.272Z,375
2018-06-18T06:42:22.828Z,360
2018-06-18T06:43:23.392Z,355
2018-06-18T06:44:23.950Z,360
2018-06-18T06:45:24.515Z,365
2018-06-18T06:46:25.077Z,355
2018-06-18T06:47:25.629Z,340
2018-06-18T06:48:26.193Z,350
2018-06-18T06:49:26.782Z,400
2018-06-18T06:50:27.381Z,420
2018-06-18T06:51:27.940Z,435
2018-06-18T06:52:28.500Z,465
2018-06-18T06:53:29.055Z,500
2018-06-18T06:54:29.618Z,540
2018-06-18T06:55:30.176Z,545
2018-06-18T06:56:30.755Z,550
2018-06-18T06:57:31.306Z,535
2018-06-18T06:58:31.861Z,490
2018-06-18T06:59:32.424Z,470
2018-06-18T07:00:32.982Z,485
2018-06-18T07:01:33.538Z,555
2018-06-18T07:03:49.638Z,590
2018-06-18T07:04:50.152Z,555
2018-06-18T07:05:50.714Z,520
2018-06-18T07:06:51.275Z,465
2018-06-18T07:07:51.834Z,445
2018-06-18T07:08:52.402Z,440
2018-06-18T07:09:52.965Z,445
2018-06-18T07:10:53.526Z,460
2018-06-18T07:11:54.095Z,480
2018-06-18T07:12:54.656Z,525
2018-06-18T07:13:55.215Z,580
2018-06-18T07:14:55.781Z,615
2018-06-18T07:15:56.344Z,670
2018-06-18T07:16:56.905Z,715
2018-06-18T07:17:57.464Z,720
2018-06-18T07:18:58.030Z,735
2018-06-18T07:19:58.670Z,790
2018-06-18T07:20:59.229Z,830
2018-06-18T07:21:59.791Z,870
2018-06-18T07:23:00.385Z,975
2018-06-18T07:24:00.922Z,980
2018-06-18T07:25:01.486Z,930
2018-06-18T07:26:02.072Z,925
2018-06-18T07:27:02.664Z,890
2018-06-18T07:28:03.241Z,905
2018-06-18T07:29:03.821Z,915
2018-06-18T07:30:04.334Z,930
2018-06-18T07:31:04.884Z,960
2018-06-18T07:32:05.452Z,895
2018-06-18T07:33:06.024Z,845
2018-06-18T07:34:06.585Z,840
2018-06-18T07:35:07.152Z,850
2018-06-18T07:36:07.715Z,860
2018-06-18T07:37:08.275Z,870
2018-06-18T07:38:08.842Z,865
2018-06-18T07:39:09.401Z,900
2018-06-18T07:40:09.973Z,940
2018-06-18T07:41:10.534Z,970
2018-06-18T07:42:11.102Z,950
2018-06-18T07:43:11.668Z,875
2018-06-18T07:44:12.231Z,940
2018-06-18T07:45:12.800Z,1005
2018-06-18T07:46:13.365Z,1045
2018-06-18T07:47:13.924Z,1230
2018-06-18T07:48:14.497Z,1275
2018-06-18T07:49:15.060Z,1285
2018-06-18T07:50:15.628Z,1205
2018-06-18T07:51:16.193Z,1175
2018-06-18T07:52:16.768Z,1140
2018-06-18T07:53:17.344Z,1260
2018-06-18T07:54:17.900Z,1040
2018-06-18T07:55:18.464Z,930
2018-06-18T07:56:19.034Z,975
2018-06-18T07:57:19.605Z,1575
2018-06-18T07:58:20.251Z,1150
2018-06-18T07:59:20.828Z,1185
2018-06-18T08:00:21.403Z,1230
2018-06-18T08:01:21.976Z,1215
2018-06-18T08:02:22.559Z,1400
2018-06-18T08:03:23.120Z,1270
2018-06-18T08:04:23.766Z,1275
2018-06-18T08:05:24.548Z,1275
2018-06-18T08:06:25.430Z,1305
2018-06-18T08:07:25.928Z,1275
2018-06-18T08:08:26.804Z,1330
2018-06-18T08:09:27.338Z,1315
2018-06-18T08:10:27.904Z,1335
2018-06-18T08:11:28.474Z,1250
2018-06-18T08:12:29.047Z,1255
2018-06-18T08:13:29.696Z,1340
2018-06-18T08:14:30.345Z,1295
2018-06-18T08:15:30.886Z,1415
2018-06-18T08:16:31.454Z,1295
2018-06-18T08:17:32.009Z,1170
2018-06-18T08:18:32.582Z,1165
2018-06-18T08:19:33.153Z,1260
2018-06-18T08:20:33.721Z,1440
2018-06-18T08:21:34.303Z,1390
2018-06-18T08:22:34.874Z,1850
2018-06-18T08:23:35.445Z,1555
2018-06-18T08:24:36.066Z,1565
2018-06-18T08:25:36.638Z,1600
2018-06-18T08:26:37.242Z,1525
2018-06-18T08:27:37.808Z,1405
2018-06-18T08:28:38.377Z,1360
2018-06-18T08:29:38.974Z,1365
2018-06-18T08:30:39.550Z,1180
2018-06-18T08:31:40.322Z,1180
2018-06-18T08:32:40.895Z,1715
2018-06-18T08:33:41.462Z,1580
2018-06-18T08:34:42.025Z,1320
2018-06-18T08:35:42.601Z,1680
2018-06-18T08:36:43.181Z,2430
2018-06-18T08:37:43.748Z,1360
2018-06-18T08:38:44.318Z,1680
2018-06-18T08:39:44.896Z,2625
2018-06-18T08:40:45.492Z,2535
2018-06-18T08:41:46.057Z,2460
2018-06-18T08:42:46.625Z,1385
2018-06-18T08:43:47.200Z,1770
2018-06-18T08:44:47.775Z,2220
2018-06-18T08:45:48.349Z,2170
2018-06-18T08:46:48.925Z,1580
2018-06-18T08:47:49.504Z,2240
2018-06-18T08:48:50.090Z,2565
2018-06-18T08:49:50.780Z,2475
2018-06-18T08:50:51.353Z,2155
2018-06-18T08:51:51.929Z,1975
2018-06-18T08:52:52.504Z,2395
2018-06-18T08:53:53.133Z,2175
2018-06-18T08:54:53.702Z,1610
2018-06-18T08:55:54.276Z,1650
2018-06-18T08:56:54.851Z,1955
2018-06-18T08:57:55.439Z,1710
2018-06-18T08:58:56.000Z,1640
2018-06-18T08:59:56.578Z,2090
2018-06-18T09:00:57.151Z,1440
2018-06-18T09:01:57.723Z,1285
2018-06-18T09:02:58.291Z,1250
2018-06-18T09:03:58.858Z,1205
2018-06-18T09:04:59.435Z,1080
2018-06-18T09:06:00.007Z,980
2018-06-18T09:07:00.577Z,910
2018-06-18T09:08:01.149Z,865
2018-06-18T09:09:01.727Z,860
2018-06-18T09:10:02.372Z,890
2018-06-18T09:11:02.893Z,985
2018-06-18T09:12:03.446Z,1035
2018-06-18T09:13:04.046Z,1005
2018-06-18T09:14:04.635Z,965
2018-06-18T09:15:05.164Z,935
2018-06-18T09:16:05.737Z,920
2018-06-18T09:17:06.301Z,965
2018-06-18T09:18:06.879Z,1065
2018-06-18T09:19:07.473Z,1225
2018-06-18T09:20:08.013Z,1425
2018-06-18T09:21:08.585Z,1725
2018-06-18T09:22:09.139Z,2055
2018-06-18T09:23:09.705Z,1600
2018-06-18T09:24:10.278Z,1620
2018-06-18T09:25:10.853Z,1790
2018-06-18T09:26:11.420Z,2010
2018-06-18T09:27:11.998Z,1500
2018-06-18T09:28:12.566Z,1515
2018-06-18T09:29:13.136Z,1510
2018-06-18T09:30:13.717Z,2020
2018-06-18T09:31:14.281Z,2420
2018-06-18T09:32:15.223Z,2130
2018-06-18T09:33:15.642Z,1790
2018-06-18T09:34:16.214Z,2985
2018-06-18T09:35:16.782Z,2855
2018-06-18T09:36:17.357Z,2375
2018-06-18T09:37:17.924Z,1525
2018-06-18T09:38:18.528Z,1090
2018-06-18T09:39:19.131Z,950
2018-06-18T09:40:19.696Z,2690
2018-06-18T09:41:20.285Z,2520
2018-06-18T09:42:20.859Z,1205
2018-06-18T09:43:21.420Z,1095
2018-06-18T09:44:22.061Z,1235
2018-06-18T09:45:22.666Z,1255
2018-06-18T09:46:23.214Z,1110
2018-06-18T09:47:23.791Z,1940
2018-06-18T09:48:24.373Z,1130
2018-06-18T09:49:24.935Z,1260
2018-06-18T09:50:25.500Z,1510
2018-06-18T09:51:26.070Z,1240
2018-06-18T09:52:26.725Z,1170
2018-06-18T09:53:27.260Z,1155
2018-06-18T09:54:27.830Z,1205
2018-06-18T09:55:28.408Z,1215
2018-06-18T09:56:28.970Z,1120
2018-06-18T09:57:29.549Z,1100
2018-06-18T09:58:30.120Z,1070
2018-06-18T09:59:30.741Z,1035
2018-06-18T10:00:31.276Z,940
2018-06-18T10:01:31.854Z,805
2018-06-18T10:02:32.421Z,780
2018-06-18T10:03:32.999Z,870
2018-06-18T10:04:33.560Z,1065
2018-06-18T10:05:34.137Z,1420
2018-06-18T10:06:34.710Z,1490
2018-06-18T10:07:35.302Z,1420
2018-06-18T10:08:35.948Z,1495
2018-06-18T10:09:36.438Z,1595
2018-06-18T10:10:37.020Z,1785
2018-06-18T10:11:37.605Z,1735
2018-06-18T10:12:38.166Z,2095
2018-06-18T10:13:38.796Z,2030
2018-06-18T10:14:39.353Z,1840
2018-06-18T10:15:39.963Z,1845
2018-06-18T10:16:40.524Z,1735
2018-06-18T10:17:41.095Z,1900
2018-06-18T10:18:41.661Z,1930
2018-06-18T10:19:42.224Z,1700
2018-06-18T10:20:42.800Z,1565
2018-06-18T10:21:43.377Z,1515
2018-06-18T10:22:43.952Z,1360
2018-06-18T10:23:44.557Z,1415
2018-06-18T10:24:45.108Z,1470
2018-06-18T10:25:45.686Z,1355
2018-06-18T10:26:46.251Z,1255
2018-06-18T10:27:46.823Z,1205
2018-06-18T10:28:47.588Z,1235
2018-06-18T10:29:48.164Z,1270
2018-06-18T10:30:48.726Z,1315
2018-06-18T10:31:49.295Z,1365
2018-06-18T10:32:49.876Z,1260
2018-06-18T10:33:50.469Z,1095
2018-06-18T10:34:51.038Z,1010
2018-06-18T10:35:51.700Z,975
2018-06-18T10:36:52.290Z,990
2018-06-18T10:37:52.862Z,1110
2018-06-18T10:38:53.475Z,1310
2018-06-18T10:39:54.059Z,1545
2018-06-18T10:40:54.639Z,1985
2018-06-18T10:41:55.224Z,1980
2018-06-18T10:42:55.808Z,2170
2018-06-18T10:43:56.366Z,2235
2018-06-18T10:44:56.948Z,1920
2018-06-18T10:45:57.521Z,1820
2018-06-18T10:46:58.112Z,1690
2018-06-18T10:47:58.700Z,1490
2018-06-18T10:48:59.333Z,1425
2018-06-18T10:49:59.840Z,1345
2018-06-18T10:51:00.434Z,1305
2018-06-18T10:52:01.031Z,1255
2018-06-18T10:53:01.584Z,1235
2018-06-18T10:54:02.142Z,1290
2018-06-18T10:55:02.714Z,1690
2018-06-18T10:56:03.370Z,1710
2018-06-18T10:57:03.923Z,1550
2018-06-18T10:58:04.656Z,1435
2018-06-18T10:59:05.222Z,1545
2018-06-18T11:00:05.793Z,1525
2018-06-18T11:01:06.369Z,1485
2018-06-18T11:02:06.933Z,1505
2018-06-18T11:03:07.516Z,1550
2018-06-18T11:04:08.079Z,1600
2018-06-18T11:05:08.670Z,1635
2018-06-18T11:06:09.314Z,1675
2018-06-18T11:07:09.922Z,1670
2018-06-18T11:08:10.495Z,1415
2018-06-18T11:09:11.067Z,1285
2018-06-18T11:10:11.678Z,1185
2018-06-18T11:11:12.235Z,1020
2018-06-18T11:12:12.825Z,975
2018-06-18T11:13:13.439Z,1015
2018-06-18T11:14:14.009Z,1140
2018-06-18T11:15:14.590Z,1265
2018-06-18T11:16:15.323Z,1410
2018-06-18T11:17:16.050Z,1585
2018-06-18T11:18:16.393Z,1770
2018-06-18T11:19:16.966Z,1430
2018-06-18T11:20:17.569Z,1330
2018-06-18T11:21:18.152Z,1210
2018-06-18T11:22:18.711Z,1185
2018-06-18T11:23:19.371Z,1215
2018-06-18T11:24:19.970Z,1340
2018-06-18T11:25:20.725Z,1535
2018-06-18T11:26:21.251Z,1685
2018-06-18T11:27:21.893Z,1750
2018-06-18T11:28:22.483Z,1545
2018-06-18T11:29:23.120Z,1365
2018-06-18T11:30:23.666Z,1290
2018-06-18T11:31:24.235Z,1350
2018-06-18T11:32:24.832Z,1360
2018-06-18T11:33:25.409Z,1335
2018-06-18T11:34:25.983Z,1280
2018-06-18T11:35:26.564Z,1245
2018-06-18T11:36:27.151Z,1290
2018-06-18T11:37:27.728Z,1210
2018-06-18T11:38:28.308Z,1155
2018-06-18T11:39:28.931Z,1160
2018-06-18T11:40:29.452Z,1175
2018-06-18T11:41:30.053Z,1135
2018-06-18T11:42:30.619Z,1055
2018-06-18T11:43:31.223Z,985
2018-06-18T11:44:31.776Z,960
2018-06-18T11:45:32.330Z,995
2018-06-18T11:46:32.889Z,1115
2018-06-18T11:47:33.478Z,1215
2018-06-18T11:48:34.256Z,1255
2018-06-18T11:49:34.829Z,1265
2018-06-18T11:50:35.408Z,1245
2018-06-18T11:51:36.052Z,1205
2018-06-18T11:52:36.639Z,1205
2018-06-18T11:53:37.236Z,1180
2018-06-18T11:54:37.856Z,1160
2018-06-18T11:55:38.444Z,1175
2018-06-18T11:56:39.052Z,1320
2018-06-18T11:57:39.931Z,1395
2018-06-18T11:58:40.448Z,1445
2018-06-18T11:59:41.058Z,1495
2018-06-18T12:00:41.650Z,1495
2018-06-18T12:01:42.283Z,1450
2018-06-18T12:02:42.923Z,1380
2018-06-18T12:03:43.535Z,1275
2018-06-18T12:04:44.187Z,1250
2018-06-18T12:05:44.834Z,1205
2018-06-18T12:06:45.470Z,1090
2018-06-18T12:07:46.147Z,995
2018-06-18T12:08:46.755Z,930
2018-06-18T12:09:47.515Z,945
2018-06-18T12:10:48.050Z,990
2018-06-18T12:11:48.731Z,995
2018-06-18T12:12:49.428Z,925
2018-06-18T12:13:50.113Z,845
2018-06-18T12:14:51.251Z,740
2018-06-18T12:15:51.860Z,710
2018-06-18T12:16:52.622Z,790
2018-06-18T12:17:53.716Z,810
2018-06-18T12:18:54.561Z,755
2018-06-18T12:19:55.262Z,685
2018-06-18T12:20:56.090Z,595
2018-06-18T12:21:56.832Z,540
2018-06-18T12:22:57.529Z,470
2018-06-18T12:23:58.200Z,420
2018-06-18T12:24:59.159Z,400
2018-06-18T12:26:00.346Z,380
2018-06-18T12:27:01.029Z,330
2018-06-18T12:28:02.121Z,295
2018-06-18T12:29:02.905Z,270
2018-06-18T12:30:03.713Z,240
2018-06-18T12:31:04.708Z,215
2018-06-18T12:32:05.409Z,190
2018-06-18T12:33:06.117Z,190
2018-06-18T12:34:06.929Z,210
2018-06-18T12:35:07.666Z,255
2018-06-18T12:36:08.442Z,310
2018-06-18T12:37:09.203Z,290
2018-06-18T12:38:09.972Z,230
2018-06-18T12:39:10.726Z,180
2018-06-18T12:40:11.549Z,175
2018-06-18T12:41:12.401Z,175
2018-06-18T12:42:13.087Z,180
2018-06-18T12:43:13.871Z,185
2018-06-18T12:44:14.653Z,180
2018-06-18T12:45:15.927Z,195
2018-06-18T12:46:16.612Z,260
2018-06-18T12:47:17.392Z,380
2018-06-18T12:48:18.141Z,565
2018-06-18T12:49:18.882Z,700
2018-06-18T12:50:19.590Z,695
2018-06-18T12:51:20.319Z,565
2018-06-18T12:52:21.088Z,390
2018-06-18T12:53:21.747Z,305
2018-06-18T12:54:22.392Z,315
2018-06-18T12:55:23.069Z,335
2018-06-18T12:56:23.827Z,360
2018-06-18T12:57:25.003Z,415
2018-06-18T12:58:25.657Z,470
2018-06-18T12:59:26.441Z,510
2018-06-18T13:00:27.133Z,520
2018-06-18T13:01:27.912Z,515
2018-06-18T13:02:28.719Z,505
2018-06-18T13:03:29.983Z,530
2018-06-18T13:04:30.646Z,570
2018-06-18T13:05:31.400Z,605
2018-06-18T13:06:32.678Z,630
2018-06-18T13:07:33.375Z,655
2018-06-18T13:08:34.138Z,710
2018-06-18T13:09:34.842Z,795
2018-06-18T13:10:35.603Z,865
2018-06-18T13:11:36.337Z,905
2018-06-18T13:12:37.116Z,935
2018-06-18T13:13:37.873Z,970
2018-06-18T13:14:38.662Z,1010
2018-06-18T13:15:39.416Z,1030
2018-06-18T13:16:40.202Z,1040
2018-06-18T13:17:40.997Z,1050
2018-06-18T13:18:41.824Z,1030
2018-06-18T13:19:42.613Z,1010
2018-06-18T13:20:43.386Z,1000
2018-06-18T13:21:44.190Z,1005
2018-06-18T13:22:45.017Z,1005
2018-06-18T13:23:45.786Z,940
2018-06-18T13:24:46.566Z,870
2018-06-18T13:25:47.305Z,850
2018-06-18T13:26:48.111Z,780
2018-06-18T13:27:48.811Z,595
2018-06-18T13:28:49.624Z,420
2018-06-18T13:29:50.383Z,355
2018-06-18T13:30:51.141Z,285
2018-06-18T13:31:51.879Z,250
2018-06-18T13:32:52.596Z,240
2018-06-18T13:33:53.293Z,220
2018-06-18T13:34:53.994Z,195
2018-06-18T13:35:54.708Z,205
2018-06-18T13:36:55.534Z,235
2018-06-18T13:37:56.263Z,265
2018-06-18T13:38:56.999Z,295
2018-06-18T13:39:57.825Z,325
2018-06-18T13:40:58.479Z,365
2018-06-18T13:41:59.192Z,455
2018-06-18T13:42:59.920Z,525
2018-06-18T13:44:00.700Z,590
2018-06-18T13:45:01.405Z,685
2018-06-18T13:46:02.151Z,775
2018-06-18T13:47:02.791Z,840
2018-06-18T13:48:03.506Z,905
2018-06-18T13:49:04.143Z,1020
2018-06-18T13:50:04.858Z,1025
2018-06-18T13:51:05.584Z,1060
2018-06-18T13:52:06.217Z,1075
2018-06-18T13:53:06.819Z,1100
2018-06-18T13:54:07.414Z,1095
2018-06-18T13:55:07.999Z,1055
2018-06-18T13:56:08.568Z,1030
2018-06-18T13:57:09.143Z,1020
2018-06-18T13:58:09.716Z,1045
2018-06-18T13:59:10.325Z,1070
2018-06-18T14:00:10.890Z,1085
2018-06-18T14:01:11.465Z,1095
2018-06-18T14:02:12.053Z,1135